sensor_id;sensor_type;location;lat;lon;timestamp;temperature;humidity
69503;SHT31;56704;54.242;12.442;2023-03-01T00:00:39;-1.06;87.51
69503;SHT31;56704;54.242;12.442;2023-03-01T00:03:06;-0.96;87.59
69503;SHT31;56704;54.242;12.442;2023-03-01T00:05:32;-0.89;87.39
69503;SHT31;56704;54.242;12.442;2023-03-01T00:08:00;-0.85;87.11
69503;SHT31;56704;54.242;12.442;2023-03-01T00:10:27;-0.79;86.86
69503;SHT31;56704;54.242;12.442;2023-03-01T00:12:53;-0.76;86.60
69503;SHT31;56704;54.242;12.442;2023-03-01T00:15:21;-0.74;86.45
69503;SHT31;56704;54.242;12.442;2023-03-01T00:17:48;-0.69;86.20
69503;SHT31;56704;54.242;12.442;2023-03-01T00:20:14;-0.68;86.03
69503;SHT31;56704;54.242;12.442;2023-03-01T00:22:41;-0.68;85.99
69503;SHT31;56704;54.242;12.442;2023-03-01T00:25:09;-0.65;85.65
69503;SHT31;56704;54.242;12.442;2023-03-01T00:27:36;-0.69;85.81
69503;SHT31;56704;54.242;12.442;2023-03-01T00:30:03;-0.71;85.59
69503;SHT31;56704;54.242;12.442;2023-03-01T00:32:30;-0.74;85.84
69503;SHT31;56704;54.242;12.442;2023-03-01T00:34:56;-0.74;85.82
69503;SHT31;56704;54.242;12.442;2023-03-01T00:37:23;-0.78;85.71
69503;SHT31;56704;54.242;12.442;2023-03-01T00:39:50;-0.75;85.71
69503;SHT31;56704;54.242;12.442;2023-03-01T00:42:18;-0.74;85.81
69503;SHT31;56704;54.242;12.442;2023-03-01T00:44:44;-0.75;85.74
69503;SHT31;56704;54.242;12.442;2023-03-01T00:47:11;-0.75;85.79
69503;SHT31;56704;54.242;12.442;2023-03-01T00:49:39;-0.75;85.76
69503;SHT31;56704;54.242;12.442;2023-03-01T00:52:05;-0.72;85.68
69503;SHT31;56704;54.242;12.442;2023-03-01T00:54:32;-0.74;85.62
69503;SHT31;56704;54.242;12.442;2023-03-01T00:56:58;-0.74;85.60
69503;SHT31;56704;54.242;12.442;2023-03-01T00:59:26;-0.69;85.71
69503;SHT31;56704;54.242;12.442;2023-03-01T01:01:53;-0.68;85.61
69503;SHT31;56704;54.242;12.442;2023-03-01T01:04:19;-0.65;85.52
69503;SHT31;56704;54.242;12.442;2023-03-01T01:06:46;-0.60;85.53
69503;SHT31;56704;54.242;12.442;2023-03-01T01:09:15;-0.54;85.23
69503;SHT31;56704;54.242;12.442;2023-03-01T01:11:44;-0.53;85.10
69503;SHT31;56704;54.242;12.442;2023-03-01T01:14:10;-0.57;85.11
69503;SHT31;56704;54.242;12.442;2023-03-01T01:16:38;-0.57;85.06
69503;SHT31;56704;54.242;12.442;2023-03-01T01:19:05;-0.48;84.96
69503;SHT31;56704;54.242;12.442;2023-03-01T01:21:32;-0.47;84.76
69503;SHT31;56704;54.242;12.442;2023-03-01T01:23:59;-0.45;84.54
69503;SHT31;56704;54.242;12.442;2023-03-01T01:26:27;-0.44;84.48
69503;SHT31;56704;54.242;12.442;2023-03-01T01:28:54;-0.41;84.31
69503;SHT31;56704;54.242;12.442;2023-03-01T01:31:22;-0.41;84.26
69503;SHT31;56704;54.242;12.442;2023-03-01T01:33:51;-0.44;84.29
69503;SHT31;56704;54.242;12.442;2023-03-01T01:36:18;-0.42;84.30
69503;SHT31;56704;54.242;12.442;2023-03-01T01:38:45;-0.40;83.93
69503;SHT31;56704;54.242;12.442;2023-03-01T01:41:12;-0.40;83.82
69503;SHT31;56704;54.242;12.442;2023-03-01T01:43:41;-0.40;83.68
69503;SHT31;56704;54.242;12.442;2023-03-01T01:46:15;-0.40;83.49
69503;SHT31;56704;54.242;12.442;2023-03-01T01:48:45;-0.40;83.46
69503;SHT31;56704;54.242;12.442;2023-03-01T01:51:18;-0.42;83.23
69503;SHT31;56704;54.242;12.442;2023-03-01T01:53:48;-0.47;83.38
69503;SHT31;56704;54.242;12.442;2023-03-01T01:56:18;-0.47;83.28
69503;SHT31;56704;54.242;12.442;2023-03-01T01:58:45;-0.54;83.23
69503;SHT31;56704;54.242;12.442;2023-03-01T02:01:13;-0.60;83.29
69503;SHT31;56704;54.242;12.442;2023-03-01T02:03:42;-0.65;83.31
69503;SHT31;56704;54.242;12.442;2023-03-01T02:06:15;-0.69;83.78
69503;SHT31;56704;54.242;12.442;2023-03-01T02:08:44;-0.75;83.89
69503;SHT31;56704;54.242;12.442;2023-03-01T02:11:13;-0.81;83.97
69503;SHT31;56704;54.242;12.442;2023-03-01T02:13:41;-0.69;84.69
69503;SHT31;56704;54.242;12.442;2023-03-01T02:16:09;-0.78;84.18
69503;SHT31;56704;54.242;12.442;2023-03-01T02:18:38;-0.81;84.10
69503;SHT31;56704;54.242;12.442;2023-03-01T02:21:17;-0.86;84.15
69503;SHT31;56704;54.242;12.442;2023-03-01T02:23:49;-0.88;84.30
69503;SHT31;56704;54.242;12.442;2023-03-01T02:26:20;-0.89;84.34
69503;SHT31;56704;54.242;12.442;2023-03-01T02:28:49;-0.89;83.97
69503;SHT31;56704;54.242;12.442;2023-03-01T02:31:18;-0.92;83.83
69503;SHT31;56704;54.242;12.442;2023-03-01T02:34:03;-0.93;83.94
69503;SHT31;56704;54.242;12.442;2023-03-01T02:36:34;-0.91;84.13
69503;SHT31;56704;54.242;12.442;2023-03-01T02:39:03;-0.97;84.03
69503;SHT31;56704;54.242;12.442;2023-03-01T02:41:34;-0.99;84.30
69503;SHT31;56704;54.242;12.442;2023-03-01T02:44:03;-1.02;84.23
69503;SHT31;56704;54.242;12.442;2023-03-01T02:46:30;-1.00;84.53
69503;SHT31;56704;54.242;12.442;2023-03-01T02:48:58;-0.97;84.30
69503;SHT31;56704;54.242;12.442;2023-03-01T02:51:34;-0.95;84.04
69503;SHT31;56704;54.242;12.442;2023-03-01T02:54:15;-0.96;83.79
69503;SHT31;56704;54.242;12.442;2023-03-01T02:56:44;-0.97;83.70
69503;SHT31;56704;54.242;12.442;2023-03-01T02:59:15;-0.99;83.72
69503;SHT31;56704;54.242;12.442;2023-03-01T03:01:42;-0.96;83.59
69503;SHT31;56704;54.242;12.442;2023-03-01T03:04:13;-0.96;83.61
69503;SHT31;56704;54.242;12.442;2023-03-01T03:06:42;-0.97;83.34
69503;SHT31;56704;54.242;12.442;2023-03-01T03:09:09;-0.96;83.41
69503;SHT31;56704;54.242;12.442;2023-03-01T03:11:35;-0.95;83.29
69503;SHT31;56704;54.242;12.442;2023-03-01T03:14:04;-0.96;83.21
69503;SHT31;56704;54.242;12.442;2023-03-01T03:16:32;-1.00;83.34
69503;SHT31;56704;54.242;12.442;2023-03-01T03:18:58;-1.00;83.50
69503;SHT31;56704;54.242;12.442;2023-03-01T03:21:30;-1.00;83.40
69503;SHT31;56704;54.242;12.442;2023-03-01T03:23:57;-1.02;83.22
69503;SHT31;56704;54.242;12.442;2023-03-01T03:26:23;-1.03;83.09
69503;SHT31;56704;54.242;12.442;2023-03-01T03:28:51;-1.07;83.37
69503;SHT31;56704;54.242;12.442;2023-03-01T03:31:18;-1.06;83.41
69503;SHT31;56704;54.242;12.442;2023-03-01T03:33:46;-0.96;83.36
69503;SHT31;56704;54.242;12.442;2023-03-01T03:36:15;-0.91;83.19
69503;SHT31;56704;54.242;12.442;2023-03-01T03:38:43;-0.91;83.21
69503;SHT31;56704;54.242;12.442;2023-03-01T03:41:10;-0.92;83.02
69503;SHT31;56704;54.242;12.442;2023-03-01T03:43:38;-0.91;83.18
69503;SHT31;56704;54.242;12.442;2023-03-01T03:46:06;-0.92;83.18
69503;SHT31;56704;54.242;12.442;2023-03-01T03:48:37;-0.89;83.21
69503;SHT31;56704;54.242;12.442;2023-03-01T03:51:06;-0.89;83.10
69503;SHT31;56704;54.242;12.442;2023-03-01T03:53:35;-0.92;83.05
69503;SHT31;56704;54.242;12.442;2023-03-01T03:56:02;-0.93;83.18
69503;SHT31;56704;54.242;12.442;2023-03-01T03:58:29;-0.97;83.02
69503;SHT31;56704;54.242;12.442;2023-03-01T04:00:56;-0.99;83.01
69503;SHT31;56704;54.242;12.442;2023-03-01T04:03:25;-1.05;83.35
69503;SHT31;56704;54.242;12.442;2023-03-01T04:05:52;-1.07;83.57
69503;SHT31;56704;54.242;12.442;2023-03-01T04:08:21;-1.07;83.37
69503;SHT31;56704;54.242;12.442;2023-03-01T04:10:49;-1.12;83.57
69503;SHT31;56704;54.242;12.442;2023-03-01T04:13:18;-1.12;83.83
69503;SHT31;56704;54.242;12.442;2023-03-01T04:15:45;-1.10;83.83
69503;SHT31;56704;54.242;12.442;2023-03-01T04:18:13;-1.03;83.84
69503;SHT31;56704;54.242;12.442;2023-03-01T04:20:40;-1.02;83.76
69503;SHT31;56704;54.242;12.442;2023-03-01T04:23:08;-1.00;83.70
69503;SHT31;56704;54.242;12.442;2023-03-01T04:25:41;-0.95;83.44
69503;SHT31;56704;54.242;12.442;2023-03-01T04:28:09;-0.92;83.09
69503;SHT31;56704;54.242;12.442;2023-03-01T04:30:36;-0.93;83.16
69503;SHT31;56704;54.242;12.442;2023-03-01T04:33:04;-0.95;83.21
69503;SHT31;56704;54.242;12.442;2023-03-01T04:35:31;-0.89;83.25
69503;SHT31;56704;54.242;12.442;2023-03-01T04:37:58;-0.78;82.90
69503;SHT31;56704;54.242;12.442;2023-03-01T04:40:25;-0.75;82.63
69503;SHT31;56704;54.242;12.442;2023-03-01T04:42:53;-0.78;82.48
69503;SHT31;56704;54.242;12.442;2023-03-01T04:45:19;-0.81;82.82
69503;SHT31;56704;54.242;12.442;2023-03-01T04:47:46;-0.84;82.83
69503;SHT31;56704;54.242;12.442;2023-03-01T04:50:15;-0.85;83.00
69503;SHT31;56704;54.242;12.442;2023-03-01T04:52:43;-0.86;83.21
69503;SHT31;56704;54.242;12.442;2023-03-01T04:55:10;-0.86;83.30
69503;SHT31;56704;54.242;12.442;2023-03-01T04:57:37;-0.84;83.26
69503;SHT31;56704;54.242;12.442;2023-03-01T05:00:07;-0.81;83.38
69503;SHT31;56704;54.242;12.442;2023-03-01T05:02:46;-0.76;83.30
69503;SHT31;56704;54.242;12.442;2023-03-01T05:05:13;-0.75;83.38
69503;SHT31;56704;54.242;12.442;2023-03-01T05:07:40;-0.75;83.37
69503;SHT31;56704;54.242;12.442;2023-03-01T05:10:07;-0.75;83.65
69503;SHT31;56704;54.242;12.442;2023-03-01T05:12:34;-0.78;83.56
69503;SHT31;56704;54.242;12.442;2023-03-01T05:15:02;-0.82;83.57
69503;SHT31;56704;54.242;12.442;2023-03-01T05:17:33;-0.86;83.59
69503;SHT31;56704;54.242;12.442;2023-03-01T05:20:00;-0.91;83.87
69503;SHT31;56704;54.242;12.442;2023-03-01T05:22:32;-0.91;83.93
69503;SHT31;56704;54.242;12.442;2023-03-01T05:24:58;-0.92;84.10
69503;SHT31;56704;54.242;12.442;2023-03-01T05:27:25;-0.92;84.24
69503;SHT31;56704;54.242;12.442;2023-03-01T05:29:51;-0.95;84.32
69503;SHT31;56704;54.242;12.442;2023-03-01T05:32:18;-0.95;84.35
69503;SHT31;56704;54.242;12.442;2023-03-01T05:34:46;-0.96;84.35
69503;SHT31;56704;54.242;12.442;2023-03-01T05:37:13;-0.96;84.39
69503;SHT31;56704;54.242;12.442;2023-03-01T05:39:39;-0.96;84.45
69503;SHT31;56704;54.242;12.442;2023-03-01T05:42:10;-0.99;84.43
69503;SHT31;56704;54.242;12.442;2023-03-01T05:44:37;-0.96;84.61
69503;SHT31;56704;54.242;12.442;2023-03-01T05:47:04;-0.89;84.79
69503;SHT31;56704;54.242;12.442;2023-03-01T05:49:31;-0.81;85.17
69503;SHT31;56704;54.242;12.442;2023-03-01T05:51:59;-0.71;85.30
69503;SHT31;56704;54.242;12.442;2023-03-01T05:54:26;-0.62;85.29
69503;SHT31;56704;54.242;12.442;2023-03-01T05:56:52;-0.60;85.00
69503;SHT31;56704;54.242;12.442;2023-03-01T05:59:19;-0.55;84.91
69503;SHT31;56704;54.242;12.442;2023-03-01T06:01:45;-0.48;84.86
69503;SHT31;56704;54.242;12.442;2023-03-01T06:04:12;-0.40;85.42
69503;SHT31;56704;54.242;12.442;2023-03-01T06:06:38;-0.28;85.54
69503;SHT31;56704;54.242;12.442;2023-03-01T06:09:06;-0.24;85.47
69503;SHT31;56704;54.242;12.442;2023-03-01T06:11:35;-0.20;85.44
69503;SHT31;56704;54.242;12.442;2023-03-01T06:14:02;-0.13;85.33
69503;SHT31;56704;54.242;12.442;2023-03-01T06:16:28;-0.04;85.13
69503;SHT31;56704;54.242;12.442;2023-03-01T06:18:55;-0.04;84.89
69503;SHT31;56704;54.242;12.442;2023-03-01T06:21:22;-0.04;85.00
69503;SHT31;56704;54.242;12.442;2023-03-01T06:23:48;-0.06;84.94
69503;SHT31;56704;54.242;12.442;2023-03-01T06:26:16;0.00;85.03
69503;SHT31;56704;54.242;12.442;2023-03-01T06:28:43;0.06;85.12
69503;SHT31;56704;54.242;12.442;2023-03-01T06:31:11;0.07;85.05
69503;SHT31;56704;54.242;12.442;2023-03-01T06:33:37;0.14;85.51
69503;SHT31;56704;54.242;12.442;2023-03-01T06:36:05;0.19;85.52
69503;SHT31;56704;54.242;12.442;2023-03-01T06:38:31;0.24;85.68
69503;SHT31;56704;54.242;12.442;2023-03-01T06:40:58;0.29;85.71
69503;SHT31;56704;54.242;12.442;2023-03-01T06:43:26;0.29;85.50
69503;SHT31;56704;54.242;12.442;2023-03-01T06:45:52;0.37;85.77
69503;SHT31;56704;54.242;12.442;2023-03-01T06:48:19;0.41;86.15
69503;SHT31;56704;54.242;12.442;2023-03-01T06:50:45;0.46;86.48
69503;SHT31;56704;54.242;12.442;2023-03-01T06:53:12;0.49;86.77
69503;SHT31;56704;54.242;12.442;2023-03-01T06:55:38;0.62;87.39
69503;SHT31;56704;54.242;12.442;2023-03-01T06:58:05;0.64;87.10
69503;SHT31;56704;54.242;12.442;2023-03-01T07:00:33;0.70;87.47
69503;SHT31;56704;54.242;12.442;2023-03-01T07:03:00;0.79;87.57
69503;SHT31;56704;54.242;12.442;2023-03-01T07:05:28;0.86;87.75
69503;SHT31;56704;54.242;12.442;2023-03-01T07:07:54;0.92;88.05
69503;SHT31;56704;54.242;12.442;2023-03-01T07:10:22;0.99;88.24
69503;SHT31;56704;54.242;12.442;2023-03-01T07:12:48;1.01;88.36
69503;SHT31;56704;54.242;12.442;2023-03-01T07:15:15;1.12;88.96
69503;SHT31;56704;54.242;12.442;2023-03-01T07:17:43;1.17;88.62
69503;SHT31;56704;54.242;12.442;2023-03-01T07:20:11;1.22;88.92
69503;SHT31;56704;54.242;12.442;2023-03-01T07:22:39;1.22;89.12
69503;SHT31;56704;54.242;12.442;2023-03-01T07:25:07;1.26;89.27
69503;SHT31;56704;54.242;12.442;2023-03-01T07:27:33;1.37;89.63
69503;SHT31;56704;54.242;12.442;2023-03-01T07:30:00;1.38;90.31
69503;SHT31;56704;54.242;12.442;2023-03-01T07:32:26;1.43;90.31
69503;SHT31;56704;54.242;12.442;2023-03-01T07:34:54;1.44;90.41
69503;SHT31;56704;54.242;12.442;2023-03-01T07:37:21;1.50;90.40
69503;SHT31;56704;54.242;12.442;2023-03-01T07:39:48;1.55;90.29
69503;SHT31;56704;54.242;12.442;2023-03-01T07:42:14;1.57;90.51
69503;SHT31;56704;54.242;12.442;2023-03-01T07:44:41;1.58;90.83
69503;SHT31;56704;54.242;12.442;2023-03-01T07:47:07;1.62;91.29
69503;SHT31;56704;54.242;12.442;2023-03-01T07:49:34;1.68;91.24
69503;SHT31;56704;54.242;12.442;2023-03-01T07:52:02;1.74;91.57
69503;SHT31;56704;54.242;12.442;2023-03-01T07:54:29;1.88;91.40
69503;SHT31;56704;54.242;12.442;2023-03-01T07:56:56;2.29;90.43
69503;SHT31;56704;54.242;12.442;2023-03-01T07:59:23;2.23;90.38
69503;SHT31;56704;54.242;12.442;2023-03-01T08:01:54;2.16;90.49
69503;SHT31;56704;54.242;12.442;2023-03-01T08:04:20;2.13;90.91
69503;SHT31;56704;54.242;12.442;2023-03-01T08:06:47;2.15;91.24
69503;SHT31;56704;54.242;12.442;2023-03-01T08:09:15;2.29;91.26
69503;SHT31;56704;54.242;12.442;2023-03-01T08:11:42;2.15;91.64
69503;SHT31;56704;54.242;12.442;2023-03-01T08:14:08;2.15;91.88
69503;SHT31;56704;54.242;12.442;2023-03-01T08:16:35;2.12;92.19
69503;SHT31;56704;54.242;12.442;2023-03-01T08:19:04;2.10;92.34
69503;SHT31;56704;54.242;12.442;2023-03-01T08:21:30;2.06;92.39
69503;SHT31;56704;54.242;12.442;2023-03-01T08:23:57;2.13;92.39
69503;SHT31;56704;54.242;12.442;2023-03-01T08:26:25;2.09;92.37
69503;SHT31;56704;54.242;12.442;2023-03-01T08:28:51;2.17;92.43
69503;SHT31;56704;54.242;12.442;2023-03-01T08:31:20;2.20;92.47
69503;SHT31;56704;54.242;12.442;2023-03-01T08:33:49;2.20;92.13
69503;SHT31;56704;54.242;12.442;2023-03-01T08:36:18;2.23;92.33
69503;SHT31;56704;54.242;12.442;2023-03-01T08:38:46;2.30;92.24
69503;SHT31;56704;54.242;12.442;2023-03-01T08:41:13;2.48;92.30
69503;SHT31;56704;54.242;12.442;2023-03-01T08:43:41;2.56;91.67
69503;SHT31;56704;54.242;12.442;2023-03-01T08:46:07;2.54;91.70
69503;SHT31;56704;54.242;12.442;2023-03-01T08:48:34;2.56;91.57
69503;SHT31;56704;54.242;12.442;2023-03-01T08:51:07;2.56;91.67
69503;SHT31;56704;54.242;12.442;2023-03-01T08:53:34;2.60;91.38
69503;SHT31;56704;54.242;12.442;2023-03-01T08:56:00;2.64;91.10
69503;SHT31;56704;54.242;12.442;2023-03-01T08:58:27;2.64;91.11
69503;SHT31;56704;54.242;12.442;2023-03-01T09:00:55;2.70;91.18
69503;SHT31;56704;54.242;12.442;2023-03-01T09:03:22;2.85;90.97
69503;SHT31;56704;54.242;12.442;2023-03-01T09:05:49;2.84;90.55
69503;SHT31;56704;54.242;12.442;2023-03-01T09:08:16;2.77;90.65
69503;SHT31;56704;54.242;12.442;2023-03-01T09:10:43;2.76;90.61
69503;SHT31;56704;54.242;12.442;2023-03-01T09:13:09;2.70;90.75
69503;SHT31;56704;54.242;12.442;2023-03-01T09:15:36;2.70;90.93
69503;SHT31;56704;54.242;12.442;2023-03-01T09:18:05;2.73;91.05
69503;SHT31;56704;54.242;12.442;2023-03-01T09:20:32;2.74;91.02
69503;SHT31;56704;54.242;12.442;2023-03-01T09:22:58;2.77;90.88
69503;SHT31;56704;54.242;12.442;2023-03-01T09:25:25;2.80;90.87
69503;SHT31;56704;54.242;12.442;2023-03-01T09:27:52;2.87;90.89
69503;SHT31;56704;54.242;12.442;2023-03-01T09:30:19;2.88;90.78
69503;SHT31;56704;54.242;12.442;2023-03-01T09:32:45;2.88;90.55
69503;SHT31;56704;54.242;12.442;2023-03-01T09:35:14;2.89;90.75
69503;SHT31;56704;54.242;12.442;2023-03-01T09:37:40;2.89;90.79
69503;SHT31;56704;54.242;12.442;2023-03-01T09:40:12;2.98;90.69
69503;SHT31;56704;54.242;12.442;2023-03-01T09:42:47;3.08;90.50
69503;SHT31;56704;54.242;12.442;2023-03-01T09:45:25;3.18;90.32
69503;SHT31;56704;54.242;12.442;2023-03-01T09:47:52;3.30;90.15
69503;SHT31;56704;54.242;12.442;2023-03-01T09:50:21;3.40;89.68
69503;SHT31;56704;54.242;12.442;2023-03-01T09:52:53;3.56;89.42
69503;SHT31;56704;54.242;12.442;2023-03-01T09:55:25;3.60;89.22
69503;SHT31;56704;54.242;12.442;2023-03-01T09:57:55;3.64;89.12
69503;SHT31;56704;54.242;12.442;2023-03-01T10:00:31;3.77;89.18
69503;SHT31;56704;54.242;12.442;2023-03-01T10:03:05;3.86;88.90
69503;SHT31;56704;54.242;12.442;2023-03-01T10:05:43;3.91;88.88
69503;SHT31;56704;54.242;12.442;2023-03-01T10:08:26;4.01;88.22
69503;SHT31;56704;54.242;12.442;2023-03-01T10:10:55;4.05;88.23
69503;SHT31;56704;54.242;12.442;2023-03-01T10:13:25;4.07;88.30
69503;SHT31;56704;54.242;12.442;2023-03-01T10:15:54;4.18;88.47
69503;SHT31;56704;54.242;12.442;2023-03-01T10:18:25;4.18;88.01
69503;SHT31;56704;54.242;12.442;2023-03-01T10:20:57;4.15;87.99
69503;SHT31;56704;54.242;12.442;2023-03-01T10:23:25;4.27;88.18
69503;SHT31;56704;54.242;12.442;2023-03-01T10:26:21;4.41;87.99
69503;SHT31;56704;54.242;12.442;2023-03-01T10:28:59;4.49;87.81
69503;SHT31;56704;54.242;12.442;2023-03-01T10:31:37;4.68;87.72
69503;SHT31;56704;54.242;12.442;2023-03-01T10:34:09;4.63;87.33
69503;SHT31;56704;54.242;12.442;2023-03-01T10:36:38;4.72;86.84
69503;SHT31;56704;54.242;12.442;2023-03-01T10:39:12;4.81;87.06
69503;SHT31;56704;54.242;12.442;2023-03-01T10:41:53;5.04;86.66
69503;SHT31;56704;54.242;12.442;2023-03-01T10:44:36;5.20;86.12
69503;SHT31;56704;54.242;12.442;2023-03-01T10:47:04;5.30;85.78
69503;SHT31;56704;54.242;12.442;2023-03-01T10:49:31;5.38;84.92
69503;SHT31;56704;54.242;12.442;2023-03-01T10:52:17;5.30;84.88
69503;SHT31;56704;54.242;12.442;2023-03-01T10:54:52;5.31;84.91
69503;SHT31;56704;54.242;12.442;2023-03-01T10:57:30;5.45;85.35
69503;SHT31;56704;54.242;12.442;2023-03-01T11:00:14;5.44;84.51
69503;SHT31;56704;54.242;12.442;2023-03-01T11:02:42;5.44;84.80
69503;SHT31;56704;54.242;12.442;2023-03-01T11:05:18;5.47;84.41
69503;SHT31;56704;54.242;12.442;2023-03-01T11:07:51;5.48;83.90
69503;SHT31;56704;54.242;12.442;2023-03-01T11:10:20;5.45;84.32
69503;SHT31;56704;54.242;12.442;2023-03-01T11:12:47;5.39;84.75
69503;SHT31;56704;54.242;12.442;2023-03-01T11:15:25;5.44;84.71
69503;SHT31;56704;54.242;12.442;2023-03-01T11:17:53;5.38;84.56
69503;SHT31;56704;54.242;12.442;2023-03-01T11:20:25;5.28;84.75
69503;SHT31;56704;54.242;12.442;2023-03-01T11:22:56;5.30;84.95
69503;SHT31;56704;54.242;12.442;2023-03-01T11:25:25;5.39;84.82
69503;SHT31;56704;54.242;12.442;2023-03-01T11:27:54;5.41;84.51
69503;SHT31;56704;54.242;12.442;2023-03-01T11:30:25;5.41;84.79
69503;SHT31;56704;54.242;12.442;2023-03-01T11:33:03;5.60;84.24
69503;SHT31;56704;54.242;12.442;2023-03-01T11:35:31;5.70;83.64
69503;SHT31;56704;54.242;12.442;2023-03-01T11:38:16;5.68;83.69
69503;SHT31;56704;54.242;12.442;2023-03-01T11:40:47;5.76;83.76
69503;SHT31;56704;54.242;12.442;2023-03-01T11:43:20;5.80;83.54
69503;SHT31;56704;54.242;12.442;2023-03-01T11:46:06;5.93;83.27
69503;SHT31;56704;54.242;12.442;2023-03-01T11:48:51;5.98;83.02
69503;SHT31;56704;54.242;12.442;2023-03-01T11:51:24;5.90;82.67
69503;SHT31;56704;54.242;12.442;2023-03-01T11:54:01;6.17;82.57
69503;SHT31;56704;54.242;12.442;2023-03-01T11:56:34;6.60;81.88
69503;SHT31;56704;54.242;12.442;2023-03-01T12:02:27;7.27;79.74
69503;SHT31;56704;54.242;12.442;2023-03-01T12:05:23;7.29;78.93
69503;SHT31;56704;54.242;12.442;2023-03-01T12:07:55;7.12;78.97
69503;SHT31;56704;54.242;12.442;2023-03-01T12:10:30;7.03;78.73
69503;SHT31;56704;54.242;12.442;2023-03-01T12:13:17;7.00;79.65
69503;SHT31;56704;54.242;12.442;2023-03-01T12:15:58;6.78;79.93
69503;SHT31;56704;54.242;12.442;2023-03-01T12:21:42;7.23;79.36
69503;SHT31;56704;54.242;12.442;2023-03-01T12:24:42;7.46;78.58
69503;SHT31;56704;54.242;12.442;2023-03-01T12:27:24;7.39;78.17
69503;SHT31;56704;54.242;12.442;2023-03-01T12:30:03;7.37;78.70
69503;SHT31;56704;54.242;12.442;2023-03-01T12:32:45;7.69;77.95
69503;SHT31;56704;54.242;12.442;2023-03-01T12:35:31;7.82;77.39
69503;SHT31;56704;54.242;12.442;2023-03-01T12:38:11;7.67;77.09
69503;SHT31;56704;54.242;12.442;2023-03-01T12:41:01;7.36;78.37
69503;SHT31;56704;54.242;12.442;2023-03-01T12:43:42;7.24;78.38
69503;SHT31;56704;54.242;12.442;2023-03-01T12:46:21;7.26;78.67
69503;SHT31;56704;54.242;12.442;2023-03-01T12:48:58;7.33;78.91
69503;SHT31;56704;54.242;12.442;2023-03-01T12:51:31;7.24;78.62
69503;SHT31;56704;54.242;12.442;2023-03-01T12:54:01;7.15;78.92
69503;SHT31;56704;54.242;12.442;2023-03-01T12:56:32;6.84;79.69
69503;SHT31;56704;54.242;12.442;2023-03-01T12:59:11;6.81;80.12
69503;SHT31;56704;54.242;12.442;2023-03-01T13:01:43;6.93;80.36
69503;SHT31;56704;54.242;12.442;2023-03-01T13:04:18;6.77;80.01
69503;SHT31;56704;54.242;12.442;2023-03-01T13:06:57;6.77;80.31
69503;SHT31;56704;54.242;12.442;2023-03-01T13:09:33;6.85;80.39
69503;SHT31;56704;54.242;12.442;2023-03-01T13:12:01;6.95;80.37
69503;SHT31;56704;54.242;12.442;2023-03-01T13:14:44;7.02;79.80
69503;SHT31;56704;54.242;12.442;2023-03-01T13:17:33;6.95;79.64
69503;SHT31;56704;54.242;12.442;2023-03-01T13:20:13;6.79;80.43
69503;SHT31;56704;54.242;12.442;2023-03-01T13:22:39;6.82;80.16
69503;SHT31;56704;54.242;12.442;2023-03-01T13:25:15;6.79;80.56
69503;SHT31;56704;54.242;12.442;2023-03-01T13:27:43;7.81;79.44
69503;SHT31;56704;54.242;12.442;2023-03-01T13:30:41;8.26;76.45
69503;SHT31;56704;54.242;12.442;2023-03-01T13:33:42;7.99;76.27
69503;SHT31;56704;54.242;12.442;2023-03-01T13:36:10;7.84;76.91
69503;SHT31;56704;54.242;12.442;2023-03-01T13:38:48;7.46;77.09
69503;SHT31;56704;54.242;12.442;2023-03-01T13:44:26;6.98;79.29
69503;SHT31;56704;54.242;12.442;2023-03-01T13:46:59;6.82;79.47
69503;SHT31;56704;54.242;12.442;2023-03-01T13:49:41;6.68;79.75
69503;SHT31;56704;54.242;12.442;2023-03-01T13:52:27;6.37;80.80
69503;SHT31;56704;54.242;12.442;2023-03-01T13:54:57;6.57;80.93
69503;SHT31;56704;54.242;12.442;2023-03-01T13:57:28;6.75;80.41
69503;SHT31;56704;54.242;12.442;2023-03-01T13:59:57;6.64;79.95
69503;SHT31;56704;54.242;12.442;2023-03-01T14:02:25;6.60;80.00
69503;SHT31;56704;54.242;12.442;2023-03-01T14:04:56;6.45;80.60
69503;SHT31;56704;54.242;12.442;2023-03-01T14:07:24;6.42;81.10
69503;SHT31;56704;54.242;12.442;2023-03-01T14:09:54;6.40;81.04
69503;SHT31;56704;54.242;12.442;2023-03-01T14:12:30;6.34;81.20
69503;SHT31;56704;54.242;12.442;2023-03-01T14:15:03;6.27;81.20
69503;SHT31;56704;54.242;12.442;2023-03-01T14:18:05;6.05;81.86
69503;SHT31;56704;54.242;12.442;2023-03-01T14:20:40;6.03;82.18
69503;SHT31;56704;54.242;12.442;2023-03-01T14:23:10;5.99;82.64
69503;SHT31;56704;54.242;12.442;2023-03-01T14:25:38;5.98;82.53
69503;SHT31;56704;54.242;12.442;2023-03-01T14:28:14;5.93;82.78
69503;SHT31;56704;54.242;12.442;2023-03-01T14:30:43;5.78;83.75
69503;SHT31;56704;54.242;12.442;2023-03-01T14:33:22;5.78;83.34
69503;SHT31;56704;54.242;12.442;2023-03-01T14:35:54;5.76;83.09
69503;SHT31;56704;54.242;12.442;2023-03-01T14:38:21;5.73;83.28
69503;SHT31;56704;54.242;12.442;2023-03-01T14:40:59;5.66;83.50
69503;SHT31;56704;54.242;12.442;2023-03-01T14:43:29;5.59;83.41
69503;SHT31;56704;54.242;12.442;2023-03-01T14:45:56;5.58;84.08
69503;SHT31;56704;54.242;12.442;2023-03-01T14:48:24;5.54;83.73
69503;SHT31;56704;54.242;12.442;2023-03-01T14:50:53;5.44;83.59
69503;SHT31;56704;54.242;12.442;2023-03-01T14:53:21;5.39;84.08
69503;SHT31;56704;54.242;12.442;2023-03-01T14:55:52;5.41;84.64
69503;SHT31;56704;54.242;12.442;2023-03-01T14:58:21;5.34;84.41
69503;SHT31;56704;54.242;12.442;2023-03-01T15:00:52;5.27;84.58
69503;SHT31;56704;54.242;12.442;2023-03-01T15:03:27;5.24;84.59
69503;SHT31;56704;54.242;12.442;2023-03-01T15:05:56;5.17;84.53
69503;SHT31;56704;54.242;12.442;2023-03-01T15:08:24;5.14;84.87
69503;SHT31;56704;54.242;12.442;2023-03-01T15:11:01;5.13;84.76
69503;SHT31;56704;54.242;12.442;2023-03-01T15:13:31;5.03;85.23
69503;SHT31;56704;54.242;12.442;2023-03-01T15:16:09;4.90;85.37
69503;SHT31;56704;54.242;12.442;2023-03-01T15:18:43;4.79;85.65
69503;SHT31;56704;54.242;12.442;2023-03-01T15:21:16;4.79;86.06
69503;SHT31;56704;54.242;12.442;2023-03-01T15:23:49;4.70;86.11
69503;SHT31;56704;54.242;12.442;2023-03-01T15:26:23;4.62;86.21
69503;SHT31;56704;54.242;12.442;2023-03-01T15:28:52;4.53;86.55
69503;SHT31;56704;54.242;12.442;2023-03-01T15:31:20;4.45;86.85
69503;SHT31;56704;54.242;12.442;2023-03-01T15:33:49;4.39;87.16
69503;SHT31;56704;54.242;12.442;2023-03-01T15:36:35;4.37;87.19
69503;SHT31;56704;54.242;12.442;2023-03-01T15:39:39;4.37;87.34
69503;SHT31;56704;54.242;12.442;2023-03-01T15:42:10;4.39;87.23
69503;SHT31;56704;54.242;12.442;2023-03-01T15:44:38;4.32;87.23
69503;SHT31;56704;54.242;12.442;2023-03-01T15:47:23;4.31;87.91
69503;SHT31;56704;54.242;12.442;2023-03-01T15:49:51;4.24;87.42
69503;SHT31;56704;54.242;12.442;2023-03-01T15:52:22;4.07;87.38
69503;SHT31;56704;54.242;12.442;2023-03-01T15:54:54;3.99;87.88